sensor_id;sensor_type;location;lat;lon;timestamp;P1;durP1;ratioP1;P2;durP2;ratioP2
1947;SDS011;974;52.400;9.818;2022-08-03T00:01:16;5.10;;;3.63;;
1947;SDS011;974;52.400;9.818;2022-08-03T00:03:42;4.93;;;3.70;;
1947;SDS011;974;52.400;9.818;2022-08-03T00:06:07;6.47;;;4.00;;
1947;SDS011;974;52.400;9.818;2022-08-03T00:08:33;5.57;;;4.00;;
1947;SDS011;974;52.400;9.818;2022-08-03T00:10:58;6.10;;;3.87;;
1947;SDS011;974;52.400;9.818;2022-08-03T00:13:24;6.13;;;4.03;;
1947;SDS011;974;52.400;9.818;2022-08-03T00:15:50;5.37;;;4.23;;
1947;SDS011;974;52.400;9.818;2022-08-03T00:18:15;6.83;;;4.53;;
1947;SDS011;974;52.400;9.818;2022-08-03T00:20:41;5.30;;;4.20;;
1947;SDS011;974;52.400;9.818;2022-08-03T00:23:07;5.43;;;3.87;;
1947;SDS011;974;52.400;9.818;2022-08-03T00:25:33;5.40;;;3.90;;
1947;SDS011;974;52.400;9.818;2022-08-03T00:28:00;6.57;;;4.40;;
1947;SDS011;974;52.400;9.818;2022-08-03T00:30:26;6.50;;;4.63;;
1947;SDS011;974;52.400;9.818;2022-08-03T00:32:52;6.57;;;4.10;;
1947;SDS011;974;52.400;9.818;2022-08-03T00:35:17;9.47;;;4.60;;
1947;SDS011;974;52.400;9.818;2022-08-03T00:37:43;7.40;;;5.00;;
1947;SDS011;974;52.400;9.818;2022-08-03T00:40:10;6.30;;;4.20;;
1947;SDS011;974;52.400;9.818;2022-08-03T00:42:49;7.20;;;4.67;;
1947;SDS011;974;52.400;9.818;2022-08-03T00:45:18;5.60;;;3.67;;
1947;SDS011;974;52.400;9.818;2022-08-03T00:47:48;6.67;;;4.20;;
1947;SDS011;974;52.400;9.818;2022-08-03T00:50:14;7.67;;;4.50;;
1947;SDS011;974;52.400;9.818;2022-08-03T00:52:41;6.73;;;4.20;;
1947;SDS011;974;52.400;9.818;2022-08-03T00:55:07;8.80;;;4.10;;
1947;SDS011;974;52.400;9.818;2022-08-03T00:57:33;6.23;;;4.40;;
1947;SDS011;974;52.400;9.818;2022-08-03T00:59:59;6.90;;;4.30;;
1947;SDS011;974;52.400;9.818;2022-08-03T01:02:25;4.67;;;3.30;;
1947;SDS011;974;52.400;9.818;2022-08-03T01:04:52;10.47;;;4.80;;
1947;SDS011;974;52.400;9.818;2022-08-03T01:07:26;6.67;;;4.30;;
1947;SDS011;974;52.400;9.818;2022-08-03T01:15:28;6.30;;;4.37;;
1947;SDS011;974;52.400;9.818;2022-08-03T01:18:07;5.70;;;4.13;;
1947;SDS011;974;52.400;9.818;2022-08-03T01:20:39;6.20;;;4.70;;
1947;SDS011;974;52.400;9.818;2022-08-03T01:26:23;9.55;;;4.40;;
1947;SDS011;974;52.400;9.818;2022-08-03T01:31:58;6.72;;;4.35;;
1947;SDS011;974;52.400;9.818;2022-08-03T01:34:28;5.50;;;4.07;;
1947;SDS011;974;52.400;9.818;2022-08-03T01:36:58;7.57;;;4.50;;
1947;SDS011;974;52.400;9.818;2022-08-03T01:39:27;6.05;;;4.50;;
1947;SDS011;974;52.400;9.818;2022-08-03T01:41:56;5.57;;;3.90;;
1947;SDS011;974;52.400;9.818;2022-08-03T01:44:25;5.53;;;4.17;;
1947;SDS011;974;52.400;9.818;2022-08-03T01:46:55;5.60;;;3.67;;
1947;SDS011;974;52.400;9.818;2022-08-03T01:49:23;6.60;;;3.97;;
1947;SDS011;974;52.400;9.818;2022-08-03T01:51:51;5.83;;;4.33;;
1947;SDS011;974;52.400;9.818;2022-08-03T01:54:17;6.17;;;4.27;;
1947;SDS011;974;52.400;9.818;2022-08-03T01:56:44;6.28;;;4.10;;
1947;SDS011;974;52.400;9.818;2022-08-03T01:59:13;5.82;;;4.30;;
1947;SDS011;974;52.400;9.818;2022-08-03T02:01:41;6.50;;;4.27;;
1947;SDS011;974;52.400;9.818;2022-08-03T02:04:09;5.85;;;4.25;;
1947;SDS011;974;52.400;9.818;2022-08-03T02:06:36;5.67;;;4.00;;
1947;SDS011;974;52.400;9.818;2022-08-03T02:09:02;4.60;;;3.57;;
1947;SDS011;974;52.400;9.818;2022-08-03T02:11:30;5.80;;;4.68;;
1947;SDS011;974;52.400;9.818;2022-08-03T02:13:58;5.50;;;3.42;;
1947;SDS011;974;52.400;9.818;2022-08-03T02:16:27;10.13;;;4.37;;
1947;SDS011;974;52.400;9.818;2022-08-03T02:18:54;6.18;;;3.97;;
1947;SDS011;974;52.400;9.818;2022-08-03T02:21:22;7.33;;;4.00;;
1947;SDS011;974;52.400;9.818;2022-08-03T02:23:47;5.33;;;3.53;;
1947;SDS011;974;52.400;9.818;2022-08-03T02:26:13;6.63;;;4.37;;
1947;SDS011;974;52.400;9.818;2022-08-03T02:28:42;6.15;;;3.80;;
1947;SDS011;974;52.400;9.818;2022-08-03T02:31:12;6.10;;;4.53;;
1947;SDS011;974;52.400;9.818;2022-08-03T02:33:43;8.52;;;4.10;;
1947;SDS011;974;52.400;9.818;2022-08-03T02:36:19;6.33;;;4.00;;
1947;SDS011;974;52.400;9.818;2022-08-03T02:38:50;5.73;;;4.47;;
1947;SDS011;974;52.400;9.818;2022-08-03T02:41:20;6.03;;;4.00;;
1947;SDS011;974;52.400;9.818;2022-08-03T02:43:53;5.97;;;3.90;;
1947;SDS011;974;52.400;9.818;2022-08-03T02:46:33;6.03;;;3.90;;
1947;SDS011;974;52.400;9.818;2022-08-03T02:49:02;9.68;;;3.92;;
1947;SDS011;974;52.400;9.818;2022-08-03T02:51:29;5.40;;;4.20;;
1947;SDS011;974;52.400;9.818;2022-08-03T02:53:56;10.77;;;4.85;;
1947;SDS011;974;52.400;9.818;2022-08-03T02:56:23;6.63;;;4.47;;
1947;SDS011;974;52.400;9.818;2022-08-03T02:58:51;5.57;;;3.47;;
1947;SDS011;974;52.400;9.818;2022-08-03T03:01:20;7.20;;;4.05;;
1947;SDS011;974;52.400;9.818;2022-08-03T03:03:48;5.57;;;4.35;;
1947;SDS011;974;52.400;9.818;2022-08-03T03:06:16;6.55;;;4.50;;
1947;SDS011;974;52.400;9.818;2022-08-03T03:08:43;5.88;;;4.00;;
1947;SDS011;974;52.400;9.818;2022-08-03T03:11:10;6.80;;;4.47;;
1947;SDS011;974;52.400;9.818;2022-08-03T03:13:38;6.72;;;4.70;;
1947;SDS011;974;52.400;9.818;2022-08-03T03:16:08;7.28;;;4.38;;
1947;SDS011;974;52.400;9.818;2022-08-03T03:18:37;8.52;;;4.85;;
1947;SDS011;974;52.400;9.818;2022-08-03T03:21:04;6.53;;;4.95;;
1947;SDS011;974;52.400;9.818;2022-08-03T03:23:33;6.78;;;4.97;;
1947;SDS011;974;52.400;9.818;2022-08-03T03:26:01;11.90;;;6.45;;
1947;SDS011;974;52.400;9.818;2022-08-03T03:28:27;10.00;;;7.25;;
1947;SDS011;974;52.400;9.818;2022-08-03T03:30:54;15.13;;;5.70;;
1947;SDS011;974;52.400;9.818;2022-08-03T03:33:20;6.93;;;5.10;;
1947;SDS011;974;52.400;9.818;2022-08-03T03:35:47;7.45;;;4.93;;
1947;SDS011;974;52.400;9.818;2022-08-03T03:38:12;5.83;;;4.30;;
1947;SDS011;974;52.400;9.818;2022-08-03T03:40:38;10.20;;;4.70;;
1947;SDS011;974;52.400;9.818;2022-08-03T03:43:08;6.47;;;4.60;;
1947;SDS011;974;52.400;9.818;2022-08-03T03:45:35;5.35;;;3.75;;
1947;SDS011;974;52.400;9.818;2022-08-03T03:48:05;5.43;;;3.85;;
1947;SDS011;974;52.400;9.818;2022-08-03T03:50:32;6.10;;;3.90;;
1947;SDS011;974;52.400;9.818;2022-08-03T03:52:59;8.52;;;4.13;;
1947;SDS011;974;52.400;9.818;2022-08-03T03:55:25;5.57;;;3.88;;
1947;SDS011;974;52.400;9.818;2022-08-03T03:57:51;6.33;;;3.73;;
1947;SDS011;974;52.400;9.818;2022-08-03T04:00:17;5.30;;;4.10;;
1947;SDS011;974;52.400;9.818;2022-08-03T04:02:46;7.07;;;4.10;;
1947;SDS011;974;52.400;9.818;2022-08-03T04:05:12;7.10;;;4.28;;
1947;SDS011;974;52.400;9.818;2022-08-03T04:11:02;7.97;;;3.67;;
1947;SDS011;974;52.400;9.818;2022-08-03T04:13:43;5.00;;;3.50;;
1947;SDS011;974;52.400;9.818;2022-08-03T04:16:17;4.95;;;3.72;;
1947;SDS011;974;52.400;9.818;2022-08-03T04:18:48;5.80;;;3.60;;
1947;SDS011;974;52.400;9.818;2022-08-03T04:21:18;6.07;;;3.88;;
1947;SDS011;974;52.400;9.818;2022-08-03T04:23:45;9.15;;;3.75;;
1947;SDS011;974;52.400;9.818;2022-08-03T04:26:15;4.72;;;3.42;;
1947;SDS011;974;52.400;9.818;2022-08-03T04:28:45;6.03;;;4.00;;
1947;SDS011;974;52.400;9.818;2022-08-03T04:31:12;8.10;;;3.60;;
1947;SDS011;974;52.400;9.818;2022-08-03T04:33:40;4.93;;;3.38;;
1947;SDS011;974;52.400;9.818;2022-08-03T04:36:08;5.20;;;3.70;;
1947;SDS011;974;52.400;9.818;2022-08-03T04:38:39;5.65;;;3.78;;
1947;SDS011;974;52.400;9.818;2022-08-03T04:41:14;6.47;;;3.50;;
1947;SDS011;974;52.400;9.818;2022-08-03T04:43:40;6.50;;;3.55;;
1947;SDS011;974;52.400;9.818;2022-08-03T04:46:06;4.50;;;3.20;;
1947;SDS011;974;52.400;9.818;2022-08-03T04:48:33;6.00;;;3.40;;
1947;SDS011;974;52.400;9.818;2022-08-03T04:50:59;9.30;;;3.65;;
1947;SDS011;974;52.400;9.818;2022-08-03T04:53:28;5.18;;;3.00;;
1947;SDS011;974;52.400;9.818;2022-08-03T04:55:54;5.78;;;3.30;;
1947;SDS011;974;52.400;9.818;2022-08-03T04:58:19;5.53;;;3.20;;
1947;SDS011;974;52.400;9.818;2022-08-03T05:00:45;7.23;;;3.67;;
1947;SDS011;974;52.400;9.818;2022-08-03T05:03:14;4.20;;;3.10;;
1947;SDS011;974;52.400;9.818;2022-08-03T05:05:40;7.20;;;3.43;;
1947;SDS011;974;52.400;9.818;2022-08-03T05:08:05;5.40;;;3.00;;
1947;SDS011;974;52.400;9.818;2022-08-03T05:10:31;5.53;;;3.60;;
1947;SDS011;974;52.400;9.818;2022-08-03T05:12:57;5.67;;;3.30;;
1947;SDS011;974;52.400;9.818;2022-08-03T05:15:22;4.60;;;3.40;;
1947;SDS011;974;52.400;9.818;2022-08-03T05:17:47;5.23;;;3.10;;
1947;SDS011;974;52.400;9.818;2022-08-03T05:20:13;7.73;;;4.10;;
1947;SDS011;974;52.400;9.818;2022-08-03T05:22:38;5.00;;;3.40;;
1947;SDS011;974;52.400;9.818;2022-08-03T05:25:04;8.10;;;3.50;;
1947;SDS011;974;52.400;9.818;2022-08-03T05:27:30;5.13;;;3.70;;
1947;SDS011;974;52.400;9.818;2022-08-03T05:29:55;7.00;;;3.97;;
1947;SDS011;974;52.400;9.818;2022-08-03T05:32:21;5.27;;;3.00;;
1947;SDS011;974;52.400;9.818;2022-08-03T05:34:46;5.27;;;3.43;;
1947;SDS011;974;52.400;9.818;2022-08-03T05:37:12;8.20;;;2.90;;
1947;SDS011;974;52.400;9.818;2022-08-03T05:39:37;10.60;;;3.40;;
1947;SDS011;974;52.400;9.818;2022-08-03T05:42:03;7.40;;;3.57;;
1947;SDS011;974;52.400;9.818;2022-08-03T05:44:28;6.93;;;3.47;;
1947;SDS011;974;52.400;9.818;2022-08-03T05:46:55;7.07;;;3.40;;
1947;SDS011;974;52.400;9.818;2022-08-03T05:49:21;3.93;;;3.00;;
1947;SDS011;974;52.400;9.818;2022-08-03T05:51:46;6.03;;;3.33;;
1947;SDS011;974;52.400;9.818;2022-08-03T05:54:12;4.43;;;3.10;;
1947;SDS011;974;52.400;9.818;2022-08-03T05:56:37;6.67;;;3.70;;
1947;SDS011;974;52.400;9.818;2022-08-03T05:59:05;5.83;;;2.97;;
1947;SDS011;974;52.400;9.818;2022-08-03T06:01:31;6.00;;;3.10;;
1947;SDS011;974;52.400;9.818;2022-08-03T06:03:57;7.43;;;3.43;;
1947;SDS011;974;52.400;9.818;2022-08-03T06:06:22;5.00;;;2.90;;
1947;SDS011;974;52.400;9.818;2022-08-03T06:08:48;4.30;;;3.13;;
1947;SDS011;974;52.400;9.818;2022-08-03T06:11:14;4.43;;;3.00;;
1947;SDS011;974;52.400;9.818;2022-08-03T06:13:40;4.50;;;3.30;;
1947;SDS011;974;52.400;9.818;2022-08-03T06:16:06;5.30;;;3.37;;
1947;SDS011;974;52.400;9.818;2022-08-03T06:18:31;8.93;;;4.10;;
1947;SDS011;974;52.400;9.818;2022-08-03T06:20:57;5.93;;;3.63;;
1947;SDS011;974;52.400;9.818;2022-08-03T06:23:22;8.17;;;3.00;;
1947;SDS011;974;52.400;9.818;2022-08-03T06:25:48;6.23;;;3.63;;
1947;SDS011;974;52.400;9.818;2022-08-03T06:28:13;10.07;;;3.53;;
1947;SDS011;974;52.400;9.818;2022-08-03T06:30:39;6.03;;;3.27;;
1947;SDS011;974;52.400;9.818;2022-08-03T06:33:05;8.13;;;3.00;;
1947;SDS011;974;52.400;9.818;2022-08-03T06:35:31;10.97;;;3.33;;
1947;SDS011;974;52.400;9.818;2022-08-03T06:37:57;4.80;;;3.27;;
1947;SDS011;974;52.400;9.818;2022-08-03T06:40:23;4.77;;;3.00;;
1947;SDS011;974;52.400;9.818;2022-08-03T06:42:53;4.90;;;3.13;;
1947;SDS011;974;52.400;9.818;2022-08-03T06:45:19;6.77;;;3.83;;
1947;SDS011;974;52.400;9.818;2022-08-03T06:47:45;6.20;;;3.93;;
1947;SDS011;974;52.400;9.818;2022-08-03T06:50:10;6.10;;;3.40;;
1947;SDS011;974;52.400;9.818;2022-08-03T06:52:36;7.20;;;3.93;;
1947;SDS011;974;52.400;9.818;2022-08-03T06:55:02;10.13;;;3.67;;
1947;SDS011;974;52.400;9.818;2022-08-03T06:57:28;8.60;;;2.97;;
1947;SDS011;974;52.400;9.818;2022-08-03T06:59:53;5.10;;;3.07;;
1947;SDS011;974;52.400;9.818;2022-08-03T07:02:20;5.47;;;3.50;;
1947;SDS011;974;52.400;9.818;2022-08-03T07:04:48;8.80;;;3.30;;
1947;SDS011;974;52.400;9.818;2022-08-03T07:07:14;3.60;;;2.33;;
1947;SDS011;974;52.400;9.818;2022-08-03T07:09:39;4.73;;;2.70;;
1947;SDS011;974;52.400;9.818;2022-08-03T07:12:05;5.37;;;2.93;;
1947;SDS011;974;52.400;9.818;2022-08-03T07:14:31;6.50;;;3.37;;
1947;SDS011;974;52.400;9.818;2022-08-03T07:16:57;5.10;;;3.03;;
1947;SDS011;974;52.400;9.818;2022-08-03T07:19:22;4.83;;;2.77;;
1947;SDS011;974;52.400;9.818;2022-08-03T07:21:47;4.57;;;2.90;;
1947;SDS011;974;52.400;9.818;2022-08-03T07:24:13;7.03;;;2.83;;
1947;SDS011;974;52.400;9.818;2022-08-03T07:26:39;4.50;;;2.83;;
1947;SDS011;974;52.400;9.818;2022-08-03T07:29:04;4.53;;;3.00;;
1947;SDS011;974;52.400;9.818;2022-08-03T07:31:29;4.23;;;2.67;;
1947;SDS011;974;52.400;9.818;2022-08-03T07:33:55;3.83;;;2.70;;
1947;SDS011;974;52.400;9.818;2022-08-03T07:36:21;5.33;;;2.90;;
1947;SDS011;974;52.400;9.818;2022-08-03T07:38:46;6.20;;;3.20;;
1947;SDS011;974;52.400;9.818;2022-08-03T07:41:12;4.87;;;2.93;;
1947;SDS011;974;52.400;9.818;2022-08-03T07:43:38;5.00;;;2.77;;
1947;SDS011;974;52.400;9.818;2022-08-03T07:46:03;5.73;;;2.80;;
1947;SDS011;974;52.400;9.818;2022-08-03T07:48:28;4.00;;;2.97;;
1947;SDS011;974;52.400;9.818;2022-08-03T07:50:54;5.10;;;3.40;;
1947;SDS011;974;52.400;9.818;2022-08-03T07:53:19;5.80;;;2.83;;
1947;SDS011;974;52.400;9.818;2022-08-03T07:55:45;6.07;;;3.43;;
1947;SDS011;974;52.400;9.818;2022-08-03T07:58:11;4.50;;;2.60;;
1947;SDS011;974;52.400;9.818;2022-08-03T08:00:40;4.70;;;3.10;;
1947;SDS011;974;52.400;9.818;2022-08-03T08:03:06;6.37;;;3.00;;
1947;SDS011;974;52.400;9.818;2022-08-03T08:05:32;4.00;;;2.53;;
1947;SDS011;974;52.400;9.818;2022-08-03T08:07:58;4.47;;;2.57;;
1947;SDS011;974;52.400;9.818;2022-08-03T08:10:24;3.90;;;2.60;;
1947;SDS011;974;52.400;9.818;2022-08-03T08:12:50;4.57;;;2.60;;
1947;SDS011;974;52.400;9.818;2022-08-03T08:15:16;4.60;;;2.43;;
1947;SDS011;974;52.400;9.818;2022-08-03T08:17:49;4.57;;;2.53;;
1947;SDS011;974;52.400;9.818;2022-08-03T08:20:20;4.00;;;2.43;;
1947;SDS011;974;52.400;9.818;2022-08-03T08:22:48;4.13;;;2.50;;
1947;SDS011;974;52.400;9.818;2022-08-03T08:25:14;4.00;;;2.40;;
1947;SDS011;974;52.400;9.818;2022-08-03T08:27:40;4.40;;;2.50;;
1947;SDS011;974;52.400;9.818;2022-08-03T08:30:07;7.03;;;2.83;;
1947;SDS011;974;52.400;9.818;2022-08-03T08:32:33;8.10;;;2.47;;
1947;SDS011;974;52.400;9.818;2022-08-03T08:34:58;3.97;;;2.23;;
1947;SDS011;974;52.400;9.818;2022-08-03T08:37:24;4.60;;;2.57;;
1947;SDS011;974;52.400;9.818;2022-08-03T08:39:49;5.30;;;2.53;;
1947;SDS011;974;52.400;9.818;2022-08-03T08:42:15;7.87;;;2.47;;
1947;SDS011;974;52.400;9.818;2022-08-03T08:44:40;3.97;;;2.50;;
1947;SDS011;974;52.400;9.818;2022-08-03T08:47:06;4.93;;;2.70;;
1947;SDS011;974;52.400;9.818;2022-08-03T08:49:34;5.60;;;2.90;;
1947;SDS011;974;52.400;9.818;2022-08-03T08:52:03;3.87;;;2.40;;
1947;SDS011;974;52.400;9.818;2022-08-03T08:54:31;5.77;;;2.50;;
1947;SDS011;974;52.400;9.818;2022-08-03T08:57:00;4.27;;;2.53;;
1947;SDS011;974;52.400;9.818;2022-08-03T08:59:27;15.20;;;2.77;;
1947;SDS011;974;52.400;9.818;2022-08-03T09:01:56;5.63;;;2.70;;
1947;SDS011;974;52.400;9.818;2022-08-03T09:04:22;5.87;;;2.70;;
1947;SDS011;974;52.400;9.818;2022-08-03T09:06:48;4.90;;;2.60;;
1947;SDS011;974;52.400;9.818;2022-08-03T09:09:15;3.70;;;1.93;;
1947;SDS011;974;52.400;9.818;2022-08-03T09:11:43;8.37;;;2.53;;
1947;SDS011;974;52.400;9.818;2022-08-03T09:14:09;4.97;;;1.90;;
1947;SDS011;974;52.400;9.818;2022-08-03T09:16:35;5.03;;;1.80;;
1947;SDS011;974;52.400;9.818;2022-08-03T09:19:12;7.73;;;2.43;;
1947;SDS011;974;52.400;9.818;2022-08-03T09:21:38;3.67;;;1.83;;
1947;SDS011;974;52.400;9.818;2022-08-03T09:24:04;4.63;;;1.80;;
1947;SDS011;974;52.400;9.818;2022-08-03T09:26:31;5.70;;;2.33;;
1947;SDS011;974;52.400;9.818;2022-08-03T09:28:59;3.53;;;2.00;;
1947;SDS011;974;52.400;9.818;2022-08-03T09:34:07;4.20;;;2.00;;
1947;SDS011;974;52.400;9.818;2022-08-03T09:39:09;5.30;;;2.03;;
1947;SDS011;974;52.400;9.818;2022-08-03T09:41:36;5.47;;;1.80;;
1947;SDS011;974;52.400;9.818;2022-08-03T09:44:03;4.60;;;1.77;;
1947;SDS011;974;52.400;9.818;2022-08-03T09:46:28;9.73;;;2.00;;
1947;SDS011;974;52.400;9.818;2022-08-03T09:49:11;4.10;;;1.90;;
1947;SDS011;974;52.400;9.818;2022-08-03T09:51:36;8.30;;;2.00;;
1947;SDS011;974;52.400;9.818;2022-08-03T09:54:03;4.00;;;1.53;;
1947;SDS011;974;52.400;9.818;2022-08-03T09:59:07;4.23;;;2.20;;
1947;SDS011;974;52.400;9.818;2022-08-03T10:01:34;3.70;;;1.90;;
1947;SDS011;974;52.400;9.818;2022-08-03T10:04:01;2.90;;;1.70;;
1947;SDS011;974;52.400;9.818;2022-08-03T10:06:27;4.03;;;2.07;;
1947;SDS011;974;52.400;9.818;2022-08-03T10:11:34;3.83;;;1.90;;
1947;SDS011;974;52.400;9.818;2022-08-03T10:14:02;3.10;;;1.87;;
1947;SDS011;974;52.400;9.818;2022-08-03T10:16:37;5.10;;;1.80;;
1947;SDS011;974;52.400;9.818;2022-08-03T10:19:04;5.37;;;2.10;;
1947;SDS011;974;52.400;9.818;2022-08-03T10:21:33;10.17;;;2.23;;
1947;SDS011;974;52.400;9.818;2022-08-03T10:24:04;4.43;;;2.37;;
1947;SDS011;974;52.400;9.818;2022-08-03T10:26:32;3.80;;;1.83;;
1947;SDS011;974;52.400;9.818;2022-08-03T10:28:59;9.50;;;2.97;;
1947;SDS011;974;52.400;9.818;2022-08-03T10:31:33;4.00;;;2.10;;
1947;SDS011;974;52.400;9.818;2022-08-03T10:34:03;4.77;;;2.23;;
1947;SDS011;974;52.400;9.818;2022-08-03T10:36:30;5.20;;;2.20;;
1947;SDS011;974;52.400;9.818;2022-08-03T10:38:59;3.77;;;2.03;;
1947;SDS011;974;52.400;9.818;2022-08-03T10:41:30;15.73;;;2.50;;
1947;SDS011;974;52.400;9.818;2022-08-03T10:44:04;4.27;;;2.10;;
1947;SDS011;974;52.400;9.818;2022-08-03T10:46:33;6.67;;;3.37;;
1947;SDS011;974;52.400;9.818;2022-08-03T10:49:00;7.50;;;3.10;;
1947;SDS011;974;52.400;9.818;2022-08-03T10:51:26;4.70;;;2.53;;
1947;SDS011;974;52.400;9.818;2022-08-03T10:53:56;9.47;;;2.60;;
1947;SDS011;974;52.400;9.818;2022-08-03T10:59:16;4.70;;;2.20;;
1947;SDS011;974;52.400;9.818;2022-08-03T11:01:53;5.37;;;2.47;;
1947;SDS011;974;52.400;9.818;2022-08-03T11:04:21;3.80;;;1.73;;
1947;SDS011;974;52.400;9.818;2022-08-03T11:07:16;7.60;;;2.50;;
1947;SDS011;974;52.400;9.818;2022-08-03T11:09:40;4.13;;;2.40;;
1947;SDS011;974;52.400;9.818;2022-08-03T11:15:06;5.10;;;2.23;;
1947;SDS011;974;52.400;9.818;2022-08-03T11:17:33;4.00;;;2.00;;
1947;SDS011;974;52.400;9.818;2022-08-03T11:19:59;5.67;;;2.37;;
1947;SDS011;974;52.400;9.818;2022-08-03T11:22:25;6.00;;;2.70;;
1947;SDS011;974;52.400;9.818;2022-08-03T11:25:15;8.03;;;2.33;;
1947;SDS011;974;52.400;9.818;2022-08-03T11:27:40;4.00;;;2.70;;
1947;SDS011;974;52.400;9.818;2022-08-03T11:30:07;4.03;;;2.70;;
1947;SDS011;974;52.400;9.818;2022-08-03T11:38:00;4.47;;;2.30;;
1947;SDS011;974;52.400;9.818;2022-08-03T11:40:43;4.60;;;2.40;;
1947;SDS011;974;52.400;9.818;2022-08-03T11:48:38;4.00;;;2.60;;
1947;SDS011;974;52.400;9.818;2022-08-03T11:56:26;5.10;;;2.17;;
1947;SDS011;974;52.400;9.818;2022-08-03T11:58:53;5.90;;;2.37;;
1947;SDS011;974;52.400;9.818;2022-08-03T12:01:21;3.93;;;2.10;;
1947;SDS011;974;52.400;9.818;2022-08-03T12:03:48;6.50;;;2.03;;
1947;SDS011;974;52.400;9.818;2022-08-03T12:06:15;3.50;;;1.90;;
1947;SDS011;974;52.400;9.818;2022-08-03T12:08:41;3.97;;;2.10;;
1947;SDS011;974;52.400;9.818;2022-08-03T12:11:10;7.80;;;2.50;;
1947;SDS011;974;52.400;9.818;2022-08-03T12:13:41;3.27;;;1.70;;
1947;SDS011;974;52.400;9.818;2022-08-03T12:16:08;3.20;;;1.80;;
1947;SDS011;974;52.400;9.818;2022-08-03T12:18:34;3.60;;;1.90;;
1947;SDS011;974;52.400;9.818;2022-08-03T12:21:04;12.70;;;2.03;;
1947;SDS011;974;52.400;9.818;2022-08-03T12:23:34;4.50;;;2.10;;
1947;SDS011;974;52.400;9.818;2022-08-03T12:26:04;12.40;;;7.73;;
1947;SDS011;974;52.400;9.818;2022-08-03T12:28:31;5.50;;;2.27;;
1947;SDS011;974;52.400;9.818;2022-08-03T12:31:00;4.73;;;2.10;;
1947;SDS011;974;52.400;9.818;2022-08-03T12:33:30;4.63;;;2.20;;
1947;SDS011;974;52.400;9.818;2022-08-03T12:36:09;3.50;;;1.87;;
1947;SDS011;974;52.400;9.818;2022-08-03T12:38:36;3.20;;;1.87;;
1947;SDS011;974;52.400;9.818;2022-08-03T12:41:03;3.70;;;2.00;;
1947;SDS011;974;52.400;9.818;2022-08-03T12:43:38;3.53;;;2.10;;
1947;SDS011;974;52.400;9.818;2022-08-03T12:46:15;3.37;;;1.90;;
1947;SDS011;974;52.400;9.818;2022-08-03T12:51:27;3.47;;;2.10;;
1947;SDS011;974;52.400;9.818;2022-08-03T12:53:54;7.43;;;1.97;;
1947;SDS011;974;52.400;9.818;2022-08-03T12:56:21;6.13;;;2.00;;
1947;SDS011;974;52.400;9.818;2022-08-03T12:58:46;6.10;;;1.80;;
1947;SDS011;974;52.400;9.818;2022-08-03T13:01:12;6.00;;;1.97;;
1947;SDS011;974;52.400;9.818;2022-08-03T13:03:47;4.53;;;1.97;;
1947;SDS011;974;52.400;9.818;2022-08-03T13:06:18;6.43;;;2.33;;
1947;SDS011;974;52.400;9.818;2022-08-03T13:08:44;3.90;;;2.47;;
1947;SDS011;974;52.400;9.818;2022-08-03T13:11:22;5.23;;;2.17;;
1947;SDS011;974;52.400;9.818;2022-08-03T13:13:51;4.10;;;2.10;;
1947;SDS011;974;52.400;9.818;2022-08-03T13:16:18;3.80;;;2.23;;
1947;SDS011;974;52.400;9.818;2022-08-03T13:18:45;4.27;;;2.50;;
1947;SDS011;974;52.400;9.818;2022-08-03T13:21:13;3.30;;;1.80;;
1947;SDS011;974;52.400;9.818;2022-08-03T13:23:39;3.60;;;2.10;;
1947;SDS011;974;52.400;9.818;2022-08-03T13:26:05;3.67;;;2.20;;
1947;SDS011;974;52.400;9.818;2022-08-03T13:28:31;3.97;;;2.37;;
1947;SDS011;974;52.400;9.818;2022-08-03T13:30:56;6.93;;;2.23;;
1947;SDS011;974;52.400;9.818;2022-08-03T13:33:22;6.87;;;2.37;;
1947;SDS011;974;52.400;9.818;2022-08-03T13:35:47;10.37;;;2.50;;
1947;SDS011;974;52.400;9.818;2022-08-03T13:38:13;4.30;;;2.57;;
1947;SDS011;974;52.400;9.818;2022-08-03T13:40:38;4.30;;;2.50;;
1947;SDS011;974;52.400;9.818;2022-08-03T13:43:04;3.77;;;2.10;;
1947;SDS011;974;52.400;9.818;2022-08-03T13:45:29;4.23;;;2.33;;
1947;SDS011;974;52.400;9.818;2022-08-03T13:47:55;4.67;;;2.60;;
1947;SDS011;974;52.400;9.818;2022-08-03T13:50:20;3.93;;;2.47;;
1947;SDS011;974;52.400;9.818;2022-08-03T13:52:46;7.03;;;2.60;;
1947;SDS011;974;52.400;9.818;2022-08-03T13:55:11;6.50;;;2.50;;
1947;SDS011;974;52.400;9.818;2022-08-03T13:57:37;3.60;;;2.10;;
1947;SDS011;974;52.400;9.818;2022-08-03T14:00:03;5.50;;;2.43;;
1947;SDS011;974;52.400;9.818;2022-08-03T14:02:29;4.17;;;2.30;;
1947;SDS011;974;52.400;9.818;2022-08-03T14:04:55;3.40;;;2.03;;
1947;SDS011;974;52.400;9.818;2022-08-03T14:07:20;3.80;;;2.40;;
1947;SDS011;974;52.400;9.818;2022-08-03T14:09:46;3.97;;;2.03;;
1947;SDS011;974;52.400;9.818;2022-08-03T14:12:11;6.40;;;1.93;;
1947;SDS011;974;52.400;9.818;2022-08-03T14:14:37;3.23;;;1.90;;
1947;SDS011;974;52.400;9.818;2022-08-03T14:17:03;5.87;;;2.20;;
1947;SDS011;974;52.400;9.818;2022-08-03T14:19:28;3.20;;;1.73;;
1947;SDS011;974;52.400;9.818;2022-08-03T14:21:54;10.73;;;1.70;;
1947;SDS011;974;52.400;9.818;2022-08-03T14:24:19;3.33;;;1.80;;
1947;SDS011;974;52.400;9.818;2022-08-03T14:26:45;5.13;;;1.70;;
1947;SDS011;974;52.400;9.818;2022-08-03T14:29:10;4.10;;;1.60;;
1947;SDS011;974;52.400;9.818;2022-08-03T14:31:36;5.10;;;2.00;;
1947;SDS011;974;52.400;9.818;2022-08-03T14:34:02;4.30;;;2.47;;
1947;SDS011;974;52.400;9.818;2022-08-03T14:36:27;4.23;;;2.30;;
1947;SDS011;974;52.400;9.818;2022-08-03T14:38:53;4.40;;;2.30;;
1947;SDS011;974;52.400;9.818;2022-08-03T14:41:18;4.40;;;2.30;;
1947;SDS011;974;52.400;9.818;2022-08-03T14:43:44;3.87;;;1.87;;
1947;SDS011;974;52.400;9.818;2022-08-03T14:46:09;5.60;;;1.80;;
1947;SDS011;974;52.400;9.818;2022-08-03T14:48:35;4.13;;;2.13;;
1947;SDS011;974;52.400;9.818;2022-08-03T14:51:00;5.43;;;2.40;;
1947;SDS011;974;52.400;9.818;2022-08-03T14:53:26;3.13;;;1.80;;
1947;SDS011;974;52.400;9.818;2022-08-03T14:55:52;4.00;;;1.90;;
1947;SDS011;974;52.400;9.818;2022-08-03T14:58:19;6.10;;;2.23;;
1947;SDS011;974;52.400;9.818;2022-08-03T15:00:44;3.83;;;1.90;;
1947;SDS011;974;52.400;9.818;2022-08-03T15:03:10;4.03;;;2.00;;
1947;SDS011;974;52.400;9.818;2022-08-03T15:05:35;5.63;;;2.10;;
1947;SDS011;974;52.400;9.818;2022-08-03T15:08:01;4.33;;;2.30;;
1947;SDS011;974;52.400;9.818;2022-08-03T15:10:27;9.40;;;4.10;;
1947;SDS011;974;52.400;9.818;2022-08-03T15:12:52;7.03;;;2.57;;
1947;SDS011;974;52.400;9.818;2022-08-03T15:15:19;5.33;;;2.40;;
1947;SDS011;974;52.400;9.818;2022-08-03T15:17:44;5.43;;;2.80;;
1947;SDS011;974;52.400;9.818;2022-08-03T15:20:10;3.90;;;2.10;;
1947;SDS011;974;52.400;9.818;2022-08-03T15:22:38;6.00;;;2.30;;
1947;SDS011;974;52.400;9.818;2022-08-03T15:25:04;3.30;;;2.30;;
1947;SDS011;974;52.400;9.818;2022-08-03T15:27:30;5.87;;;2.53;;
1947;SDS011;974;52.400;9.818;2022-08-03T15:29:56;5.87;;;2.23;;
1947;SDS011;974;52.400;9.818;2022-08-03T15:32:21;5.10;;;2.20;;
1947;SDS011;974;52.400;9.818;2022-08-03T15:34:47;4.90;;;2.27;;
1947;SDS011;974;52.400;9.818;2022-08-03T15:37:12;3.93;;;2.30;;
1947;SDS011;974;52.400;9.818;2022-08-03T15:39:38;5.27;;;2.50;;
1947;SDS011;974;52.400;9.818;2022-08-03T15:42:03;3.83;;;2.20;;
1947;SDS011;974;52.400;9.818;2022-08-03T15:44:29;5.23;;;2.47;;
1947;SDS011;974;52.400;9.818;2022-08-03T15:46:54;8.23;;;2.67;;
1947;SDS011;974;52.400;9.818;2022-08-03T15:49:20;3.90;;;2.30;;
1947;SDS011;974;52.400;9.818;2022-08-03T15:51:46;3.53;;;2.03;;
1947;SDS011;974;52.400;9.818;2022-08-03T15:54:11;3.70;;;2.10;;
1947;SDS011;974;52.400;9.818;2022-08-03T15:56:37;3.77;;;2.30;;
1947;SDS011;974;52.400;9.818;2022-08-03T15:59:02;4.50;;;2.40;;
1947;SDS011;974;52.400;9.818;2022-08-03T16:01:28;4.90;;;2.40;;
1947;SDS011;974;52.400;9.818;2022-08-03T16:03:54;3.80;;;2.30;;
1947;SDS011;974;52.400;9.818;2022-08-03T16:06:19;7.73;;;2.80;;
1947;SDS011;974;52.400;9.818;2022-08-03T16:08:45;4.23;;;2.50;;
1947;SDS011;974;52.400;9.818;2022-08-03T16:11:11;5.20;;;3.40;;
1947;SDS011;974;52.400;9.818;2022-08-03T16:13:37;4.30;;;2.27;;
1947;SDS011;974;52.400;9.818;2022-08-03T16:16:02;5.13;;;2.43;;
1947;SDS011;974;52.400;9.818;2022-08-03T16:18:29;8.73;;;2.40;;
1947;SDS011;974;52.400;9.818;2022-08-03T16:20:55;3.67;;;2.00;;